Yangon, Burma
Current Conditions -  °F | °C
As of 3:30 PM on Monday 20 Oct 2014 (Local Time) from VYYY Reporting Station
Broken Clouds Broken Clouds  
Wind Chill: 26°   Ceiling: 1500
Heat Index: 28°   Visibility: 4mi
Dew Point: 25°   Wind: 3mph
Humidity: 94%   Direction: 360°N
Pressure: 29.83"   Gusts: NA
Location:  16.79°N, 96.15°E
Report Text: VYYY 200930Z 36003KT 7000 BKN015 FEW020CB 26/25 Q1010 CB NW
Loading
Personal Weather Stations






























Interactive Weather Map New forecast layout! Learn more

10-Day Weather Forecast

Advertisements
Track Severe Weather on mobile